sensor_id;sensor_type;location;lat;lon;timestamp;P1;durP1;ratioP1;P2;durP2;ratioP2
61435;SDS011;47304;47.456;19.160;2023-01-16T00:02:02;32.00;;;19.90;;
61435;SDS011;47304;47.456;19.160;2023-01-16T00:04:28;35.20;;;22.60;;
61435;SDS011;47304;47.456;19.160;2023-01-16T00:06:55;34.10;;;22.60;;
61435;SDS011;47304;47.456;19.160;2023-01-16T00:09:21;34.30;;;21.10;;
61435;SDS011;47304;47.456;19.160;2023-01-16T00:11:48;37.40;;;22.50;;
61435;SDS011;47304;47.456;19.160;2023-01-16T00:14:14;34.70;;;21.90;;
61435;SDS011;47304;47.456;19.160;2023-01-16T00:16:41;31.30;;;19.70;;
61435;SDS011;47304;47.456;19.160;2023-01-16T00:19:07;30.90;;;19.70;;
61435;SDS011;47304;47.456;19.160;2023-01-16T00:21:34;35.40;;;19.60;;
61435;SDS011;47304;47.456;19.160;2023-01-16T00:24:00;32.50;;;19.80;;
61435;SDS011;47304;47.456;19.160;2023-01-16T00:26:27;38.50;;;23.50;;
61435;SDS011;47304;47.456;19.160;2023-01-16T00:28:55;36.80;;;21.40;;
61435;SDS011;47304;47.456;19.160;2023-01-16T00:31:21;36.20;;;21.50;;
61435;SDS011;47304;47.456;19.160;2023-01-16T00:33:48;40.40;;;24.00;;
61435;SDS011;47304;47.456;19.160;2023-01-16T00:36:15;42.40;;;26.10;;
61435;SDS011;47304;47.456;19.160;2023-01-16T00:38:41;42.10;;;25.60;;
61435;SDS011;47304;47.456;19.160;2023-01-16T00:41:08;44.30;;;25.30;;
61435;SDS011;47304;47.456;19.160;2023-01-16T00:43:34;41.20;;;25.20;;
61435;SDS011;47304;47.456;19.160;2023-01-16T00:46:01;36.70;;;24.60;;
61435;SDS011;47304;47.456;19.160;2023-01-16T00:48:27;43.00;;;27.10;;
61435;SDS011;47304;47.456;19.160;2023-01-16T00:50:54;41.60;;;24.80;;
61435;SDS011;47304;47.456;19.160;2023-01-16T00:53:20;41.90;;;25.60;;
61435;SDS011;47304;47.456;19.160;2023-01-16T00:55:47;40.30;;;23.70;;
61435;SDS011;47304;47.456;19.160;2023-01-16T00:58:13;41.00;;;23.60;;
61435;SDS011;47304;47.456;19.160;2023-01-16T01:00:40;35.10;;;20.40;;
61435;SDS011;47304;47.456;19.160;2023-01-16T01:03:06;37.70;;;22.90;;
61435;SDS011;47304;47.456;19.160;2023-01-16T01:05:36;40.10;;;24.10;;
61435;SDS011;47304;47.456;19.160;2023-01-16T01:08:04;36.90;;;22.40;;
61435;SDS011;47304;47.456;19.160;2023-01-16T01:10:31;39.90;;;24.00;;
61435;SDS011;47304;47.456;19.160;2023-01-16T01:12:58;37.20;;;23.00;;
61435;SDS011;47304;47.456;19.160;2023-01-16T01:15:25;37.40;;;21.70;;
61435;SDS011;47304;47.456;19.160;2023-01-16T01:17:51;37.20;;;22.30;;
61435;SDS011;47304;47.456;19.160;2023-01-16T01:20:21;40.80;;;22.40;;
61435;SDS011;47304;47.456;19.160;2023-01-16T01:22:47;32.40;;;20.60;;
61435;SDS011;47304;47.456;19.160;2023-01-16T01:25:14;32.20;;;19.70;;
61435;SDS011;47304;47.456;19.160;2023-01-16T01:27:40;33.00;;;20.50;;
61435;SDS011;47304;47.456;19.160;2023-01-16T01:30:07;36.50;;;20.30;;
61435;SDS011;47304;47.456;19.160;2023-01-16T01:32:34;35.10;;;20.50;;
61435;SDS011;47304;47.456;19.160;2023-01-16T01:35:01;33.30;;;20.50;;
61435;SDS011;47304;47.456;19.160;2023-01-16T01:37:28;29.90;;;17.60;;
61435;SDS011;47304;47.456;19.160;2023-01-16T01:39:54;36.10;;;20.90;;
61435;SDS011;47304;47.456;19.160;2023-01-16T01:42:21;31.50;;;18.60;;
61435;SDS011;47304;47.456;19.160;2023-01-16T01:44:54;31.90;;;19.20;;
61435;SDS011;47304;47.456;19.160;2023-01-16T01:47:27;30.70;;;18.00;;
61435;SDS011;47304;47.456;19.160;2023-01-16T01:50:02;30.30;;;18.90;;
61435;SDS011;47304;47.456;19.160;2023-01-16T01:52:36;31.50;;;18.60;;
61435;SDS011;47304;47.456;19.160;2023-01-16T01:55:03;30.60;;;18.60;;
61435;SDS011;47304;47.456;19.160;2023-01-16T01:57:34;33.70;;;18.80;;
61435;SDS011;47304;47.456;19.160;2023-01-16T02:00:15;27.40;;;16.20;;
61435;SDS011;47304;47.456;19.160;2023-01-16T02:02:48;33.70;;;18.70;;
61435;SDS011;47304;47.456;19.160;2023-01-16T02:05:28;33.30;;;20.30;;
61435;SDS011;47304;47.456;19.160;2023-01-16T02:07:57;29.80;;;17.80;;
61435;SDS011;47304;47.456;19.160;2023-01-16T02:13:38;33.70;;;20.80;;
61435;SDS011;47304;47.456;19.160;2023-01-16T02:16:05;32.20;;;19.90;;
61435;SDS011;47304;47.456;19.160;2023-01-16T02:18:32;32.10;;;19.60;;
61435;SDS011;47304;47.456;19.160;2023-01-16T02:27:01;34.80;;;20.40;;
61435;SDS011;47304;47.456;19.160;2023-01-16T02:37:45;29.60;;;18.70;;
61435;SDS011;47304;47.456;19.160;2023-01-16T02:48:24;28.90;;;17.20;;
61435;SDS011;47304;47.456;19.160;2023-01-16T02:51:04;30.50;;;17.50;;
61435;SDS011;47304;47.456;19.160;2023-01-16T02:56:24;28.80;;;17.40;;
61435;SDS011;47304;47.456;19.160;2023-01-16T02:58:57;33.30;;;19.50;;
61435;SDS011;47304;47.456;19.160;2023-01-16T03:01:24;34.30;;;20.90;;
61435;SDS011;47304;47.456;19.160;2023-01-16T03:11:18;32.50;;;20.80;;
61435;SDS011;47304;47.456;19.160;2023-01-16T03:13:56;32.30;;;19.70;;
61435;SDS011;47304;47.456;19.160;2023-01-16T03:19:20;30.50;;;16.90;;
61435;SDS011;47304;47.456;19.160;2023-01-16T03:24:24;30.20;;;16.40;;
61435;SDS011;47304;47.456;19.160;2023-01-16T03:27:03;30.20;;;16.30;;
61435;SDS011;47304;47.456;19.160;2023-01-16T03:29:43;27.10;;;16.50;;
61435;SDS011;47304;47.456;19.160;2023-01-16T03:35:03;33.30;;;18.80;;
61435;SDS011;47304;47.456;19.160;2023-01-16T03:37:41;29.40;;;16.70;;
61435;SDS011;47304;47.456;19.160;2023-01-16T03:40:17;33.10;;;18.10;;
61435;SDS011;47304;47.456;19.160;2023-01-16T03:42:49;28.00;;;16.40;;
61435;SDS011;47304;47.456;19.160;2023-01-16T03:45:51;29.90;;;18.10;;
61435;SDS011;47304;47.456;19.160;2023-01-16T03:48:30;28.80;;;16.60;;
61435;SDS011;47304;47.456;19.160;2023-01-16T03:51:07;32.20;;;17.40;;
61435;SDS011;47304;47.456;19.160;2023-01-16T03:53:42;28.30;;;16.50;;
61435;SDS011;47304;47.456;19.160;2023-01-16T03:56:23;27.80;;;16.40;;
61435;SDS011;47304;47.456;19.160;2023-01-16T03:58:58;26.50;;;16.20;;
61435;SDS011;47304;47.456;19.160;2023-01-16T04:01:26;29.60;;;17.10;;
61435;SDS011;47304;47.456;19.160;2023-01-16T04:12:25;29.90;;;17.20;;
61435;SDS011;47304;47.456;19.160;2023-01-16T04:15:02;29.30;;;15.90;;
61435;SDS011;47304;47.456;19.160;2023-01-16T04:17:32;27.60;;;16.20;;
61435;SDS011;47304;47.456;19.160;2023-01-16T04:20:01;30.20;;;15.90;;
61435;SDS011;47304;47.456;19.160;2023-01-16T04:22:29;27.00;;;16.70;;
61435;SDS011;47304;47.456;19.160;2023-01-16T04:24:56;29.10;;;16.10;;
61435;SDS011;47304;47.456;19.160;2023-01-16T04:27:25;30.70;;;17.70;;
61435;SDS011;47304;47.456;19.160;2023-01-16T04:29:51;30.30;;;16.90;;
61435;SDS011;47304;47.456;19.160;2023-01-16T04:32:18;27.70;;;17.10;;
61435;SDS011;47304;47.456;19.160;2023-01-16T04:34:45;29.20;;;17.40;;
61435;SDS011;47304;47.456;19.160;2023-01-16T04:37:12;27.30;;;16.40;;
61435;SDS011;47304;47.456;19.160;2023-01-16T04:39:39;26.40;;;16.40;;
61435;SDS011;47304;47.456;19.160;2023-01-16T04:42:09;30.20;;;16.60;;
61435;SDS011;47304;47.456;19.160;2023-01-16T04:44:36;29.50;;;17.40;;
61435;SDS011;47304;47.456;19.160;2023-01-16T04:47:03;28.10;;;16.70;;
61435;SDS011;47304;47.456;19.160;2023-01-16T04:49:30;27.40;;;15.70;;
61435;SDS011;47304;47.456;19.160;2023-01-16T04:51:56;32.50;;;17.50;;
61435;SDS011;47304;47.456;19.160;2023-01-16T04:54:23;28.10;;;16.70;;
61435;SDS011;47304;47.456;19.160;2023-01-16T04:56:49;29.10;;;17.50;;
61435;SDS011;47304;47.456;19.160;2023-01-16T04:59:16;28.40;;;16.60;;
61435;SDS011;47304;47.456;19.160;2023-01-16T05:01:43;28.60;;;15.90;;
61435;SDS011;47304;47.456;19.160;2023-01-16T05:04:11;28.50;;;16.90;;
61435;SDS011;47304;47.456;19.160;2023-01-16T05:06:39;25.60;;;15.50;;
61435;SDS011;47304;47.456;19.160;2023-01-16T05:09:06;29.00;;;16.70;;
61435;SDS011;47304;47.456;19.160;2023-01-16T05:11:33;27.00;;;16.30;;
61435;SDS011;47304;47.456;19.160;2023-01-16T05:14:00;30.80;;;17.80;;
61435;SDS011;47304;47.456;19.160;2023-01-16T05:16:27;33.80;;;17.30;;
61435;SDS011;47304;47.456;19.160;2023-01-16T05:18:54;30.30;;;17.60;;
61435;SDS011;47304;47.456;19.160;2023-01-16T05:21:20;31.40;;;18.00;;
61435;SDS011;47304;47.456;19.160;2023-01-16T05:23:47;32.70;;;19.30;;
61435;SDS011;47304;47.456;19.160;2023-01-16T05:26:13;33.30;;;19.30;;
61435;SDS011;47304;47.456;19.160;2023-01-16T05:28:40;33.30;;;18.80;;
61435;SDS011;47304;47.456;19.160;2023-01-16T05:31:06;31.80;;;18.90;;
61435;SDS011;47304;47.456;19.160;2023-01-16T05:33:33;39.80;;;20.00;;
61435;SDS011;47304;47.456;19.160;2023-01-16T05:35:59;32.90;;;19.30;;
61435;SDS011;47304;47.456;19.160;2023-01-16T05:38:26;34.30;;;19.00;;
61435;SDS011;47304;47.456;19.160;2023-01-16T05:40:52;33.60;;;19.60;;
61435;SDS011;47304;47.456;19.160;2023-01-16T05:43:19;35.10;;;20.20;;
61435;SDS011;47304;47.456;19.160;2023-01-16T05:45:45;33.90;;;18.90;;
61435;SDS011;47304;47.456;19.160;2023-01-16T05:48:12;34.00;;;19.70;;
61435;SDS011;47304;47.456;19.160;2023-01-16T05:50:38;33.80;;;20.10;;
61435;SDS011;47304;47.456;19.160;2023-01-16T05:53:05;36.30;;;19.30;;
61435;SDS011;47304;47.456;19.160;2023-01-16T05:55:32;35.40;;;20.80;;
61435;SDS011;47304;47.456;19.160;2023-01-16T05:58:05;37.30;;;20.80;;
61435;SDS011;47304;47.456;19.160;2023-01-16T06:00:32;37.90;;;20.70;;
61435;SDS011;47304;47.456;19.160;2023-01-16T06:02:58;39.70;;;22.50;;
61435;SDS011;47304;47.456;19.160;2023-01-16T06:05:25;41.10;;;20.90;;
61435;SDS011;47304;47.456;19.160;2023-01-16T06:07:54;39.40;;;22.60;;
61435;SDS011;47304;47.456;19.160;2023-01-16T06:10:21;37.50;;;20.50;;
61435;SDS011;47304;47.456;19.160;2023-01-16T06:12:48;37.60;;;21.50;;
61435;SDS011;47304;47.456;19.160;2023-01-16T06:15:15;37.40;;;20.40;;
61435;SDS011;47304;47.456;19.160;2023-01-16T06:17:41;35.00;;;20.90;;
61435;SDS011;47304;47.456;19.160;2023-01-16T06:20:08;33.60;;;19.90;;
61435;SDS011;47304;47.456;19.160;2023-01-16T06:22:36;35.40;;;18.70;;
61435;SDS011;47304;47.456;19.160;2023-01-16T06:25:03;34.30;;;19.00;;
61435;SDS011;47304;47.456;19.160;2023-01-16T06:27:30;37.50;;;20.30;;
61435;SDS011;47304;47.456;19.160;2023-01-16T06:29:56;32.70;;;18.60;;
61435;SDS011;47304;47.456;19.160;2023-01-16T06:32:23;35.60;;;18.80;;
61435;SDS011;47304;47.456;19.160;2023-01-16T06:34:49;32.00;;;18.60;;
61435;SDS011;47304;47.456;19.160;2023-01-16T06:37:16;35.40;;;19.80;;
61435;SDS011;47304;47.456;19.160;2023-01-16T06:39:42;36.60;;;20.50;;
61435;SDS011;47304;47.456;19.160;2023-01-16T06:42:09;31.10;;;17.60;;
61435;SDS011;47304;47.456;19.160;2023-01-16T06:44:35;35.40;;;18.50;;
61435;SDS011;47304;47.456;19.160;2023-01-16T06:47:02;39.10;;;19.90;;
61435;SDS011;47304;47.456;19.160;2023-01-16T06:49:29;31.00;;;18.10;;
61435;SDS011;47304;47.456;19.160;2023-01-16T06:51:55;32.00;;;18.00;;
61435;SDS011;47304;47.456;19.160;2023-01-16T06:54:22;30.00;;;17.90;;
61435;SDS011;47304;47.456;19.160;2023-01-16T06:56:48;31.50;;;17.10;;
61435;SDS011;47304;47.456;19.160;2023-01-16T06:59:14;29.30;;;17.80;;
61435;SDS011;47304;47.456;19.160;2023-01-16T07:01:41;33.40;;;17.40;;
61435;SDS011;47304;47.456;19.160;2023-01-16T07:04:08;32.30;;;17.90;;
61435;SDS011;47304;47.456;19.160;2023-01-16T07:06:34;29.80;;;17.20;;
61435;SDS011;47304;47.456;19.160;2023-01-16T07:09:01;29.40;;;16.80;;
61435;SDS011;47304;47.456;19.160;2023-01-16T07:11:27;29.90;;;17.20;;
61435;SDS011;47304;47.456;19.160;2023-01-16T07:13:54;31.90;;;16.80;;
61435;SDS011;47304;47.456;19.160;2023-01-16T07:16:20;33.70;;;17.20;;
61435;SDS011;47304;47.456;19.160;2023-01-16T07:18:47;32.20;;;18.50;;
61435;SDS011;47304;47.456;19.160;2023-01-16T07:21:13;37.60;;;21.60;;
61435;SDS011;47304;47.456;19.160;2023-01-16T07:23:42;37.10;;;20.60;;
61435;SDS011;47304;47.456;19.160;2023-01-16T07:26:12;32.40;;;19.70;;
61435;SDS011;47304;47.456;19.160;2023-01-16T07:28:40;32.00;;;19.10;;
61435;SDS011;47304;47.456;19.160;2023-01-16T07:31:07;34.50;;;20.20;;
61435;SDS011;47304;47.456;19.160;2023-01-16T07:33:34;35.30;;;19.50;;
61435;SDS011;47304;47.456;19.160;2023-01-16T07:36:00;35.30;;;20.20;;
61435;SDS011;47304;47.456;19.160;2023-01-16T07:38:27;33.40;;;18.80;;
61435;SDS011;47304;47.456;19.160;2023-01-16T07:40:53;34.70;;;19.10;;
61435;SDS011;47304;47.456;19.160;2023-01-16T07:43:20;43.00;;;25.80;;
61435;SDS011;47304;47.456;19.160;2023-01-16T07:45:47;35.00;;;21.40;;
61435;SDS011;47304;47.456;19.160;2023-01-16T07:48:14;44.00;;;26.30;;
61435;SDS011;47304;47.456;19.160;2023-01-16T07:50:40;37.70;;;22.60;;
61435;SDS011;47304;47.456;19.160;2023-01-16T07:53:07;34.40;;;20.90;;
61435;SDS011;47304;47.456;19.160;2023-01-16T07:55:33;35.80;;;20.50;;
61435;SDS011;47304;47.456;19.160;2023-01-16T07:58:00;39.90;;;21.60;;
61435;SDS011;47304;47.456;19.160;2023-01-16T08:00:26;40.40;;;22.20;;
61435;SDS011;47304;47.456;19.160;2023-01-16T08:02:53;35.40;;;20.80;;
61435;SDS011;47304;47.456;19.160;2023-01-16T08:05:19;33.70;;;20.10;;
61435;SDS011;47304;47.456;19.160;2023-01-16T08:07:46;38.00;;;22.50;;
61435;SDS011;47304;47.456;19.160;2023-01-16T08:10:12;36.20;;;22.60;;
61435;SDS011;47304;47.456;19.160;2023-01-16T08:12:39;37.90;;;22.60;;
61435;SDS011;47304;47.456;19.160;2023-01-16T08:15:05;32.30;;;19.30;;
61435;SDS011;47304;47.456;19.160;2023-01-16T08:17:32;30.80;;;17.70;;
61435;SDS011;47304;47.456;19.160;2023-01-16T08:20:00;31.00;;;17.60;;
61435;SDS011;47304;47.456;19.160;2023-01-16T08:22:27;29.60;;;16.30;;
61435;SDS011;47304;47.456;19.160;2023-01-16T08:24:53;30.40;;;17.30;;
61435;SDS011;47304;47.456;19.160;2023-01-16T08:27:23;26.60;;;15.60;;
61435;SDS011;47304;47.456;19.160;2023-01-16T08:29:49;26.40;;;14.20;;
61435;SDS011;47304;47.456;19.160;2023-01-16T08:32:16;30.60;;;15.50;;
61435;SDS011;47304;47.456;19.160;2023-01-16T08:34:42;25.20;;;13.30;;
61435;SDS011;47304;47.456;19.160;2023-01-16T08:37:09;26.50;;;14.40;;
61435;SDS011;47304;47.456;19.160;2023-01-16T08:39:36;26.40;;;15.10;;
61435;SDS011;47304;47.456;19.160;2023-01-16T08:42:02;28.40;;;15.00;;
61435;SDS011;47304;47.456;19.160;2023-01-16T08:44:29;24.70;;;13.00;;
61435;SDS011;47304;47.456;19.160;2023-01-16T08:47:05;25.90;;;13.10;;
61435;SDS011;47304;47.456;19.160;2023-01-16T08:49:36;30.80;;;15.40;;
61435;SDS011;47304;47.456;19.160;2023-01-16T08:52:03;25.20;;;14.40;;
61435;SDS011;47304;47.456;19.160;2023-01-16T08:54:30;26.40;;;14.40;;
61435;SDS011;47304;47.456;19.160;2023-01-16T08:56:56;25.00;;;12.70;;
61435;SDS011;47304;47.456;19.160;2023-01-16T08:59:22;27.30;;;13.40;;
61435;SDS011;47304;47.456;19.160;2023-01-16T09:01:49;26.00;;;13.40;;
61435;SDS011;47304;47.456;19.160;2023-01-16T09:04:16;24.80;;;13.70;;
61435;SDS011;47304;47.456;19.160;2023-01-16T09:06:42;27.50;;;14.90;;
61435;SDS011;47304;47.456;19.160;2023-01-16T09:09:09;26.90;;;15.10;;
61435;SDS011;47304;47.456;19.160;2023-01-16T09:11:35;25.80;;;13.80;;
61435;SDS011;47304;47.456;19.160;2023-01-16T09:14:02;24.40;;;12.90;;
61435;SDS011;47304;47.456;19.160;2023-01-16T09:16:39;25.00;;;13.00;;
61435;SDS011;47304;47.456;19.160;2023-01-16T09:19:05;26.50;;;13.70;;
61435;SDS011;47304;47.456;19.160;2023-01-16T09:21:32;28.40;;;14.40;;
61435;SDS011;47304;47.456;19.160;2023-01-16T09:23:58;23.50;;;12.10;;
61435;SDS011;47304;47.456;19.160;2023-01-16T09:26:25;22.80;;;11.70;;
61435;SDS011;47304;47.456;19.160;2023-01-16T09:28:51;24.80;;;12.40;;
61435;SDS011;47304;47.456;19.160;2023-01-16T09:31:18;21.80;;;11.10;;
61435;SDS011;47304;47.456;19.160;2023-01-16T09:33:44;24.80;;;12.30;;
61435;SDS011;47304;47.456;19.160;2023-01-16T09:36:11;28.70;;;14.10;;
61435;SDS011;47304;47.456;19.160;2023-01-16T09:38:38;25.30;;;11.40;;
61435;SDS011;47304;47.456;19.160;2023-01-16T09:41:04;23.10;;;11.50;;
61435;SDS011;47304;47.456;19.160;2023-01-16T09:43:38;27.50;;;12.30;;
61435;SDS011;47304;47.456;19.160;2023-01-16T09:48:48;25.20;;;11.70;;
61435;SDS011;47304;47.456;19.160;2023-01-16T09:51:21;29.00;;;15.60;;
61435;SDS011;47304;47.456;19.160;2023-01-16T09:56:18;28.40;;;14.40;;
61435;SDS011;47304;47.456;19.160;2023-01-16T09:58:56;28.50;;;14.50;;
61435;SDS011;47304;47.456;19.160;2023-01-16T10:01:39;27.90;;;14.50;;
61435;SDS011;47304;47.456;19.160;2023-01-16T10:04:21;29.80;;;15.10;;
61435;SDS011;47304;47.456;19.160;2023-01-16T10:07:06;33.80;;;16.00;;
61435;SDS011;47304;47.456;19.160;2023-01-16T10:09:42;37.00;;;18.90;;
61435;SDS011;47304;47.456;19.160;2023-01-16T10:12:21;33.70;;;16.10;;
61435;SDS011;47304;47.456;19.160;2023-01-16T10:20:55;34.30;;;15.10;;
61435;SDS011;47304;47.456;19.160;2023-01-16T10:26:28;28.40;;;15.00;;
61435;SDS011;47304;47.456;19.160;2023-01-16T10:31:27;29.30;;;15.30;;
61435;SDS011;47304;47.456;19.160;2023-01-16T10:34:05;25.60;;;12.40;;
61435;SDS011;47304;47.456;19.160;2023-01-16T10:36:56;24.60;;;13.00;;
61435;SDS011;47304;47.456;19.160;2023-01-16T10:39:24;32.80;;;15.60;;
61435;SDS011;47304;47.456;19.160;2023-01-16T10:42:12;26.20;;;12.90;;
61435;SDS011;47304;47.456;19.160;2023-01-16T10:44:50;24.20;;;11.70;;
61435;SDS011;47304;47.456;19.160;2023-01-16T10:47:31;28.10;;;14.20;;
61435;SDS011;47304;47.456;19.160;2023-01-16T10:49:59;30.90;;;15.10;;
61435;SDS011;47304;47.456;19.160;2023-01-16T10:52:27;28.20;;;14.40;;
61435;SDS011;47304;47.456;19.160;2023-01-16T10:54:54;30.70;;;13.90;;
61435;SDS011;47304;47.456;19.160;2023-01-16T10:57:24;27.80;;;14.50;;
61435;SDS011;47304;47.456;19.160;2023-01-16T10:59:53;29.50;;;15.00;;
61435;SDS011;47304;47.456;19.160;2023-01-16T11:02:30;29.20;;;15.20;;
61435;SDS011;47304;47.456;19.160;2023-01-16T11:05:00;27.20;;;13.60;;
61435;SDS011;47304;47.456;19.160;2023-01-16T11:07:28;24.80;;;12.80;;
61435;SDS011;47304;47.456;19.160;2023-01-16T11:09:55;27.70;;;14.60;;
61435;SDS011;47304;47.456;19.160;2023-01-16T11:12:28;29.60;;;15.00;;
61435;SDS011;47304;47.456;19.160;2023-01-16T11:14:57;28.30;;;13.60;;
61435;SDS011;47304;47.456;19.160;2023-01-16T11:17:25;25.80;;;13.00;;
61435;SDS011;47304;47.456;19.160;2023-01-16T11:19:54;27.80;;;13.80;;
61435;SDS011;47304;47.456;19.160;2023-01-16T11:22:22;30.20;;;14.90;;
61435;SDS011;47304;47.456;19.160;2023-01-16T11:24:56;29.10;;;15.80;;
61435;SDS011;47304;47.456;19.160;2023-01-16T11:27:25;29.20;;;14.90;;
61435;SDS011;47304;47.456;19.160;2023-01-16T11:29:55;34.50;;;16.90;;
61435;SDS011;47304;47.456;19.160;2023-01-16T11:32:22;32.50;;;16.90;;
61435;SDS011;47304;47.456;19.160;2023-01-16T11:34:52;31.70;;;14.80;;
61435;SDS011;47304;47.456;19.160;2023-01-16T11:37:21;29.80;;;13.10;;
61435;SDS011;47304;47.456;19.160;2023-01-16T11:39:52;32.80;;;15.00;;
61435;SDS011;47304;47.456;19.160;2023-01-16T11:42:20;25.70;;;11.70;;
61435;SDS011;47304;47.456;19.160;2023-01-16T11:44:47;32.80;;;15.90;;
61435;SDS011;47304;47.456;19.160;2023-01-16T11:47:17;30.60;;;14.60;;
61435;SDS011;47304;47.456;19.160;2023-01-16T11:49:50;27.70;;;14.20;;
61435;SDS011;47304;47.456;19.160;2023-01-16T11:52:19;29.20;;;14.40;;
61435;SDS011;47304;47.456;19.160;2023-01-16T11:54:47;33.40;;;15.90;;
61435;SDS011;47304;47.456;19.160;2023-01-16T11:57:20;33.80;;;17.20;;
61435;SDS011;47304;47.456;19.160;2023-01-16T12:08:35;33.20;;;16.40;;
61435;SDS011;47304;47.456;19.160;2023-01-16T12:13:57;28.90;;;14.20;;
61435;SDS011;47304;47.456;19.160;2023-01-16T12:28:13;31.60;;;14.10;;
61435;SDS011;47304;47.456;19.160;2023-01-16T12:34:18;34.90;;;15.40;;
61435;SDS011;47304;47.456;19.160;2023-01-16T12:45:37;33.00;;;16.50;;
61435;SDS011;47304;47.456;19.160;2023-01-16T12:48:28;37.40;;;18.00;;
61435;SDS011;47304;47.456;19.160;2023-01-16T12:59:58;32.80;;;17.70;;
61435;SDS011;47304;47.456;19.160;2023-01-16T13:05:12;33.10;;;16.20;;
61435;SDS011;47304;47.456;19.160;2023-01-16T13:07:46;29.80;;;16.10;;
61435;SDS011;47304;47.456;19.160;2023-01-16T13:10:44;30.00;;;15.50;;
61435;SDS011;47304;47.456;19.160;2023-01-16T13:13:18;31.60;;;15.70;;
61435;SDS011;47304;47.456;19.160;2023-01-16T13:18:47;32.20;;;16.70;;
61435;SDS011;47304;47.456;19.160;2023-01-16T13:21:17;30.80;;;16.40;;
61435;SDS011;47304;47.456;19.160;2023-01-16T13:23:52;30.70;;;15.80;;
61435;SDS011;47304;47.456;19.160;2023-01-16T13:26:24;30.70;;;16.20;;
61435;SDS011;47304;47.456;19.160;2023-01-16T13:29:06;28.50;;;14.80;;
61435;SDS011;47304;47.456;19.160;2023-01-16T13:31:55;32.10;;;17.20;;
61435;SDS011;47304;47.456;19.160;2023-01-16T13:34:48;27.70;;;16.10;;
61435;SDS011;47304;47.456;19.160;2023-01-16T13:40:04;26.40;;;14.40;;
61435;SDS011;47304;47.456;19.160;2023-01-16T13:42:34;24.40;;;13.70;;
61435;SDS011;47304;47.456;19.160;2023-01-16T13:45:15;25.00;;;14.10;;
61435;SDS011;47304;47.456;19.160;2023-01-16T13:47:56;25.60;;;13.70;;
61435;SDS011;47304;47.456;19.160;2023-01-16T13:50:28;28.70;;;14.70;;
61435;SDS011;47304;47.456;19.160;2023-01-16T13:52:56;27.70;;;14.90;;
61435;SDS011;47304;47.456;19.160;2023-01-16T13:55:28;22.60;;;11.70;;
61435;SDS011;47304;47.456;19.160;2023-01-16T13:58:13;24.10;;;12.80;;
61435;SDS011;47304;47.456;19.160;2023-01-16T14:00:46;28.30;;;14.70;;
61435;SDS011;47304;47.456;19.160;2023-01-16T14:03:25;26.40;;;13.70;;
61435;SDS011;47304;47.456;19.160;2023-01-16T14:11:56;22.40;;;11.80;;
61435;SDS011;47304;47.456;19.160;2023-01-16T14:22:37;22.80;;;11.30;;
61435;SDS011;47304;47.456;19.160;2023-01-16T14:25:17;24.20;;;12.70;;
61435;SDS011;47304;47.456;19.160;2023-01-16T14:27:48;21.00;;;11.50;;
61435;SDS011;47304;47.456;19.160;2023-01-16T14:30:23;23.50;;;12.70;;
61435;SDS011;47304;47.456;19.160;2023-01-16T14:32:57;24.20;;;12.50;;
61435;SDS011;47304;47.456;19.160;2023-01-16T14:35:26;23.60;;;12.80;;
61435;SDS011;47304;47.456;19.160;2023-01-16T14:38:08;24.10;;;13.00;;
61435;SDS011;47304;47.456;19.160;2023-01-16T14:40:53;22.80;;;11.50;;
61435;SDS011;47304;47.456;19.160;2023-01-16T14:43:30;24.00;;;12.10;;
61435;SDS011;47304;47.456;19.160;2023-01-16T14:48:43;22.50;;;11.40;;
61435;SDS011;47304;47.456;19.160;2023-01-16T14:51:17;19.20;;;11.30;;
61435;SDS011;47304;47.456;19.160;2023-01-16T14:53:54;22.80;;;12.20;;
61435;SDS011;47304;47.456;19.160;2023-01-16T14:59:06;24.60;;;11.90;;
61435;SDS011;47304;47.456;19.160;2023-01-16T15:01:40;23.80;;;11.20;;
61435;SDS011;47304;47.456;19.160;2023-01-16T15:04:12;22.90;;;11.10;;
61435;SDS011;47304;47.456;19.160;2023-01-16T15:06:40;23.50;;;11.70;;
61435;SDS011;47304;47.456;19.160;2023-01-16T15:09:15;22.80;;;12.00;;
61435;SDS011;47304;47.456;19.160;2023-01-16T15:14:38;24.00;;;12.30;;
61435;SDS011;47304;47.456;19.160;2023-01-16T15:22:41;19.90;;;10.30;;
61435;SDS011;47304;47.456;19.160;2023-01-16T15:25:29;22.10;;;11.30;;
61435;SDS011;47304;47.456;19.160;2023-01-16T15:31:00;23.60;;;11.90;;
61435;SDS011;47304;47.456;19.160;2023-01-16T15:33:32;25.10;;;12.60;;
61435;SDS011;47304;47.456;19.160;2023-01-16T15:36:00;22.80;;;11.60;;
61435;SDS011;47304;47.456;19.160;2023-01-16T15:38:26;24.50;;;12.60;;
61435;SDS011;47304;47.456;19.160;2023-01-16T15:40:53;24.20;;;13.20;;
61435;SDS011;47304;47.456;19.160;2023-01-16T15:43:19;25.50;;;12.80;;
61435;SDS011;47304;47.456;19.160;2023-01-16T15:45:58;25.30;;;13.10;;
61435;SDS011;47304;47.456;19.160;2023-01-16T15:51:02;21.80;;;11.10;;
61435;SDS011;47304;47.456;19.160;2023-01-16T15:56:04;21.10;;;11.50;;
61435;SDS011;47304;47.456;19.160;2023-01-16T15:58:44;28.40;;;14.50;;
61435;SDS011;47304;47.456;19.160;2023-01-16T16:01:24;23.60;;;11.90;;
61435;SDS011;47304;47.456;19.160;2023-01-16T16:03:53;26.30;;;13.10;;
61435;SDS011;47304;47.456;19.160;2023-01-16T16:06:20;25.80;;;13.40;;
61435;SDS011;47304;47.456;19.160;2023-01-16T16:08:51;27.90;;;14.60;;
61435;SDS011;47304;47.456;19.160;2023-01-16T16:11:20;24.50;;;13.80;;
61435;SDS011;47304;47.456;19.160;2023-01-16T16:13:49;24.50;;;13.40;;
61435;SDS011;47304;47.456;19.160;2023-01-16T16:16:25;24.20;;;12.60;;
61435;SDS011;47304;47.456;19.160;2023-01-16T16:18:53;22.70;;;11.80;;
61435;SDS011;47304;47.456;19.160;2023-01-16T16:21:21;26.80;;;14.50;;
61435;SDS011;47304;47.456;19.160;2023-01-16T16:23:57;26.60;;;13.90;;
61435;SDS011;47304;47.456;19.160;2023-01-16T16:26:27;28.00;;;15.70;;
61435;SDS011;47304;47.456;19.160;2023-01-16T16:28:54;26.80;;;15.10;;
61435;SDS011;47304;47.456;19.160;2023-01-16T16:31:34;27.60;;;14.90;;
61435;SDS011;47304;47.456;19.160;2023-01-16T16:36:36;28.60;;;14.70;;
61435;SDS011;47304;47.456;19.160;2023-01-16T16:39:04;24.80;;;12.40;;
61435;SDS011;47304;47.456;19.160;2023-01-16T16:41:51;22.40;;;11.00;;
61435;SDS011;47304;47.456;19.160;2023-01-16T16:44:22;26.00;;;13.20;;
61435;SDS011;47304;47.456;19.160;2023-01-16T16:46:50;24.10;;;13.50;;
61435;SDS011;47304;47.456;19.160;2023-01-16T16:51:51;22.30;;;12.80;;
61435;SDS011;47304;47.456;19.160;2023-01-16T16:54:17;27.40;;;15.50;;
61435;SDS011;47304;47.456;19.160;2023-01-16T16:56:45;26.30;;;14.50;;
61435;SDS011;47304;47.456;19.160;2023-01-16T16:59:15;25.00;;;14.20;;
61435;SDS011;47304;47.456;19.160;2023-01-16T17:01:48;27.00;;;14.40;;
61435;SDS011;47304;47.456;19.160;2023-01-16T17:04:17;23.90;;;13.00;;
61435;SDS011;47304;47.456;19.160;2023-01-16T17:06:44;27.50;;;14.90;;
61435;SDS011;47304;47.456;19.160;2023-01-16T17:09:14;26.70;;;14.20;;